createdAt,value
2019-04-11T00:00:57.676Z,13.90
2019-04-11T00:03:27.385Z,11.57
2019-04-11T00:05:57.136Z,12.93
2019-04-11T00:08:26.701Z,16.37
2019-04-11T00:10:56.234Z,13.50
2019-04-11T00:13:45.207Z,12.27
2019-04-11T00:16:15.220Z,13.37
2019-04-11T00:18:49.145Z,14.73
2019-04-11T00:21:18.788Z,13.77
2019-04-11T00:23:48.531Z,13.70
2019-04-11T00:26:18.034Z,15.47
2019-04-11T00:29:07.007Z,13.23
2019-04-11T00:31:36.876Z,12.70
2019-04-11T00:34:06.831Z,13.83
2019-04-11T00:36:36.808Z,18.07
2019-04-11T00:39:11.034Z,15.93
2019-04-11T00:42:00.022Z,16.63
2019-04-11T00:44:30.546Z,16.13
2019-04-11T00:47:00.540Z,15.90
2019-04-11T00:49:30.380Z,16.87
2019-04-11T00:52:02.671Z,15.13
2019-04-11T00:54:33.148Z,13.13
2019-04-11T00:57:02.761Z,12.60
2019-04-11T00:59:32.293Z,19.87
2019-04-11T01:02:02.087Z,14.33
2019-04-11T01:04:32.766Z,15.50
2019-04-11T01:07:02.776Z,14.10
2019-04-11T01:09:32.661Z,13.03
2019-04-11T01:12:02.679Z,13.40
2019-04-11T01:14:32.306Z,15.37
2019-04-11T01:17:21.331Z,12.43
2019-04-11T01:19:51.152Z,13.67
2019-04-11T01:22:20.748Z,13.93
2019-04-11T01:24:50.374Z,15.33
2019-04-11T01:27:19.916Z,16.07
2019-04-11T01:29:49.816Z,18.27
2019-04-11T01:32:20.208Z,17.93
2019-04-11T01:34:50.856Z,17.30
2019-04-11T01:37:21.741Z,17.00
2019-04-11T01:39:53.696Z,17.90
2019-04-11T01:42:23.317Z,15.97
2019-04-11T01:44:53.137Z,16.70
2019-04-11T01:47:24.450Z,15.70
2019-04-11T01:49:54.564Z,16.53
2019-04-11T01:52:24.529Z,15.47
2019-04-11T01:54:54.208Z,17.60
2019-04-11T01:57:23.701Z,13.70
2019-04-11T01:59:55.569Z,16.07
2019-04-11T02:02:26.786Z,15.17
2019-04-11T02:04:58.708Z,16.17
2019-04-11T02:07:28.905Z,14.53
2019-04-11T02:10:10.683Z,15.47
2019-04-11T02:12:40.138Z,16.63
2019-04-11T02:15:10.594Z,17.50
2019-04-11T02:17:41.100Z,19.10
2019-04-11T02:20:12.543Z,16.47
2019-04-11T02:22:43.710Z,20.03
2019-04-11T02:25:15.075Z,16.80
2019-04-11T02:27:44.583Z,18.60
2019-04-11T02:30:16.764Z,18.43
2019-04-11T02:32:47.895Z,16.57
2019-04-11T02:35:17.658Z,18.13
2019-04-11T02:37:50.459Z,18.27
2019-04-11T02:40:22.929Z,17.00
2019-04-11T02:42:52.632Z,21.43
2019-04-11T02:45:36.265Z,18.63
2019-04-11T02:47:56.422Z,17.03
2019-04-11T02:50:29.943Z,16.27
2019-04-11T02:53:00.941Z,18.20
2019-04-11T02:55:31.682Z,18.23
2019-04-11T02:58:03.333Z,18.23
2019-04-11T03:00:35.465Z,22.17
2019-04-11T03:03:05.680Z,19.10
2019-04-11T03:05:37.565Z,16.70
2019-04-11T03:08:16.506Z,21.27
2019-04-11T03:10:57.710Z,19.47
2019-04-11T03:13:29.291Z,19.13
2019-04-11T03:16:33.287Z,20.07
2019-04-11T03:19:05.575Z,19.87
2019-04-11T03:21:23.550Z,23.00
2019-04-11T03:23:52.299Z,22.93
2019-04-11T03:26:22.564Z,24.00
2019-04-11T03:28:56.257Z,19.87
2019-04-11T03:32:05.833Z,21.00
2019-04-11T03:34:38.454Z,21.83
2019-04-11T03:39:18.217Z,26.30
2019-04-11T03:41:45.449Z,21.07
2019-04-11T03:44:11.992Z,23.33
2019-04-11T03:46:51.091Z,24.23
2019-04-11T03:49:19.268Z,22.87
2019-04-11T03:51:37.016Z,21.07
2019-04-11T03:54:26.986Z,23.73
2019-04-11T03:56:59.177Z,21.87
2019-04-11T03:59:31.223Z,24.70
2019-04-11T04:02:03.309Z,25.17
2019-04-11T04:04:35.100Z,25.33
2019-04-11T04:07:06.786Z,24.33
2019-04-11T04:09:37.371Z,23.83
2019-04-11T04:12:09.483Z,24.70
2019-04-11T04:14:42.868Z,22.17
2019-04-11T04:17:35.889Z,26.40
2019-04-11T04:20:08.781Z,24.50
2019-04-11T04:22:42.086Z,24.97
2019-04-11T04:25:12.527Z,24.07
2019-04-11T04:27:42.918Z,23.40
2019-04-11T04:30:15.069Z,22.57
2019-04-11T04:32:45.191Z,23.50
2019-04-11T04:35:19.010Z,25.07
2019-04-11T04:37:47.899Z,28.67
2019-04-11T04:40:50.996Z,24.87
2019-04-11T04:43:11.932Z,26.43
2019-04-11T04:45:57.914Z,24.30
2019-04-11T04:48:16.652Z,22.33
2019-04-11T04:50:44.870Z,23.83
2019-04-11T04:53:16.159Z,21.33
2019-04-11T04:55:47.686Z,27.67
2019-04-11T04:58:18.025Z,22.03
2019-04-11T05:00:51.128Z,25.37
2019-04-11T05:03:20.148Z,23.67
2019-04-11T05:05:50.996Z,20.47
2019-04-11T05:08:22.732Z,23.80
2019-04-11T05:10:53.549Z,23.80
2019-04-11T05:13:46.317Z,22.13
2019-04-11T05:16:17.620Z,22.00
2019-04-11T05:18:45.001Z,21.07
2019-04-11T05:21:14.497Z,21.00
2019-04-11T05:23:44.031Z,22.20
2019-04-11T05:26:33.348Z,23.40
2019-04-11T05:29:02.896Z,21.23
2019-04-11T05:31:32.377Z,20.30
2019-04-11T05:34:02.036Z,20.87
2019-04-11T05:36:32.346Z,23.00
2019-04-11T05:39:02.365Z,20.10
2019-04-11T05:41:31.999Z,20.50
2019-04-11T05:44:03.481Z,19.70
2019-04-11T05:46:45.450Z,20.30
2019-04-11T05:49:05.649Z,21.43
2019-04-11T05:51:40.921Z,17.70
2019-04-11T05:54:08.835Z,19.17
2019-04-11T05:56:38.486Z,19.93
2019-04-11T05:59:09.675Z,18.23
2019-04-11T06:01:46.844Z,21.80
2019-04-11T06:04:20.965Z,17.77
2019-04-11T06:06:50.717Z,20.73
2019-04-11T06:09:22.771Z,20.23
2019-04-11T06:11:57.228Z,17.93
2019-04-11T06:14:27.246Z,19.10
2019-04-11T06:16:59.169Z,16.10
2019-04-11T06:19:30.668Z,16.80
2019-04-11T06:22:01.836Z,16.40
2019-04-11T06:24:52.346Z,20.30
2019-04-11T06:27:24.199Z,16.63
2019-04-11T06:29:55.437Z,14.77
2019-04-11T06:32:27.768Z,23.13
2019-04-11T06:34:59.725Z,17.43
2019-04-11T06:40:20.994Z,13.77
2019-04-11T06:42:52.094Z,14.80
2019-04-11T06:45:23.786Z,12.43
2019-04-11T06:47:55.039Z,12.70
2019-04-11T06:50:45.438Z,14.40
2019-04-11T06:53:36.476Z,12.03
2019-04-11T06:56:08.332Z,12.10
2019-04-11T06:58:39.550Z,12.70
2019-04-11T07:01:11.888Z,11.80
2019-04-11T07:03:43.346Z,13.20
2019-04-11T07:06:15.397Z,12.57
2019-04-11T07:08:46.945Z,12.73
2019-04-11T07:11:18.122Z,9.47
2019-04-11T07:13:49.777Z,20.67
2019-04-11T07:16:19.975Z,12.73
2019-04-11T07:18:52.738Z,11.70
2019-04-11T07:21:23.910Z,9.93
2019-04-11T07:23:55.552Z,9.80
2019-04-11T07:26:27.378Z,9.83
2019-04-11T07:28:58.659Z,10.73
2019-04-11T07:31:30.102Z,12.13
2019-04-11T07:34:02.478Z,9.13
2019-04-11T07:36:33.945Z,10.27
2019-04-11T07:39:09.848Z,9.20
2019-04-11T07:41:43.022Z,9.40
2019-04-11T07:44:15.443Z,11.67
2019-04-11T07:46:47.300Z,8.73
2019-04-11T07:49:18.496Z,11.23
2019-04-11T07:51:50.678Z,11.37
2019-04-11T07:54:25.898Z,11.07
2019-04-11T07:56:57.058Z,9.67
2019-04-11T07:59:29.451Z,12.20
2019-04-11T08:02:01.566Z,10.27
2019-04-11T08:04:32.632Z,9.53
2019-04-11T08:07:04.432Z,10.70
2019-04-11T08:09:35.852Z,10.73
2019-04-11T08:12:15.026Z,8.63
2019-04-11T08:14:46.291Z,12.07
2019-04-11T08:17:29.000Z,9.13
2019-04-11T08:19:51.146Z,9.73
2019-04-11T08:22:23.136Z,9.90
2019-04-11T08:24:54.361Z,12.20
2019-04-11T08:27:25.476Z,9.53
2019-04-11T08:29:56.619Z,10.58
2019-04-11T08:32:30.574Z,10.32
2019-04-11T08:35:02.005Z,12.07
2019-04-11T08:37:33.768Z,10.10
2019-04-11T08:40:05.890Z,11.07
2019-04-11T08:42:37.801Z,14.27
2019-04-11T08:45:29.802Z,12.53
2019-04-11T08:48:01.033Z,12.50
2019-04-11T08:50:32.399Z,11.45
2019-04-11T08:53:04.571Z,10.48
2019-04-11T08:55:45.575Z,11.60
2019-04-11T08:58:14.691Z,10.73
2019-04-11T09:00:46.986Z,10.23
2019-04-11T09:03:18.080Z,11.10
2019-04-11T09:05:49.350Z,12.15
2019-04-11T09:08:20.601Z,10.43
2019-04-11T09:10:52.588Z,9.80
2019-04-11T09:13:24.964Z,10.87
2019-04-11T09:15:59.410Z,12.30
2019-04-11T09:18:30.622Z,11.40
2019-04-11T09:21:02.352Z,10.10
2019-04-11T09:23:32.010Z,12.88
2019-04-11T09:26:03.621Z,13.43
2019-04-11T09:28:35.620Z,10.63
2019-04-11T09:31:09.249Z,12.27
2019-04-11T09:33:39.821Z,14.10
2019-04-11T09:36:11.384Z,12.33
2019-04-11T09:38:42.488Z,11.22
2019-04-11T09:41:14.399Z,11.03
2019-04-11T09:43:44.777Z,12.82
2019-04-11T09:46:16.486Z,13.20
2019-04-11T09:48:48.380Z,10.10
2019-04-11T09:51:19.608Z,10.68
2019-04-11T09:53:50.851Z,10.38
2019-04-11T09:56:22.831Z,11.03
2019-04-11T09:58:54.014Z,12.25
2019-04-11T10:01:25.112Z,9.83
2019-04-11T10:03:54.700Z,10.48
2019-04-11T10:06:25.854Z,11.12
2019-04-11T10:08:57.621Z,9.23
2019-04-11T10:11:48.529Z,9.73
2019-04-11T10:14:19.305Z,12.55
2019-04-11T10:16:50.700Z,10.70
2019-04-11T10:19:22.092Z,8.85
2019-04-11T10:21:54.365Z,8.98
2019-04-11T10:24:26.384Z,8.75
2019-04-11T10:26:58.482Z,11.53
2019-04-11T10:32:39.317Z,9.13
2019-04-11T10:35:10.845Z,9.33
2019-04-11T10:37:42.249Z,9.25
2019-04-11T10:40:13.885Z,9.60
2019-04-11T10:42:44.420Z,10.30
2019-04-11T10:45:16.266Z,10.60
2019-04-11T10:47:47.205Z,9.70
2019-04-11T10:50:37.776Z,9.23
2019-04-11T10:53:27.007Z,9.38
2019-04-11T10:55:58.171Z,11.40
2019-04-11T10:58:29.273Z,8.93
2019-04-11T11:01:00.559Z,8.73
2019-04-11T11:03:33.997Z,8.78
2019-04-11T11:06:05.481Z,9.08
2019-04-11T11:08:37.623Z,8.93
2019-04-11T11:11:11.685Z,8.88
2019-04-11T11:13:42.406Z,10.50
2019-04-11T11:16:12.290Z,9.43
2019-04-11T11:19:15.578Z,9.25
2019-04-11T11:21:15.513Z,9.83
2019-04-11T11:23:49.128Z,9.30
2019-04-11T11:26:22.612Z,10.63
2019-04-11T11:28:52.419Z,10.65
2019-04-11T11:31:24.409Z,9.27
2019-04-11T11:33:56.367Z,9.98
2019-04-11T11:36:32.088Z,9.18
2019-04-11T11:41:38.548Z,9.13
2019-04-11T11:44:09.866Z,8.50
2019-04-11T11:46:41.087Z,11.30
2019-04-11T11:49:43.826Z,10.08
2019-04-11T11:52:22.809Z,12.78
2019-04-11T11:54:53.565Z,12.88
2019-04-11T11:57:24.803Z,8.93
2019-04-11T11:59:56.577Z,8.60
2019-04-11T12:02:28.558Z,13.00
2019-04-11T12:05:00.275Z,9.43
2019-04-11T12:07:36.997Z,9.23
2019-04-11T12:10:04.470Z,8.27
2019-04-11T12:12:35.939Z,9.73
2019-04-11T12:15:08.213Z,9.43
2019-04-11T12:17:40.373Z,9.27
2019-04-11T12:20:14.949Z,12.80
2019-04-11T12:22:44.820Z,8.70
2019-04-11T12:25:16.593Z,9.23
2019-04-11T12:27:48.051Z,10.35
2019-04-11T12:30:23.436Z,8.87
2019-04-11T12:32:52.903Z,8.08
2019-04-11T12:38:11.178Z,8.75
2019-04-11T12:41:01.583Z,7.87
2019-04-11T12:43:32.694Z,9.35
2019-04-11T12:46:03.795Z,9.20
2019-04-11T12:48:34.895Z,8.98
2019-04-11T12:51:06.103Z,8.90
2019-04-11T12:53:35.558Z,9.73
2019-04-11T12:56:06.813Z,8.30
2019-04-11T12:58:38.225Z,12.20
2019-04-11T13:01:09.323Z,8.53
2019-04-11T13:03:40.582Z,9.33
2019-04-11T13:06:11.895Z,9.33
2019-04-11T13:11:29.567Z,8.50
2019-04-11T13:14:00.646Z,7.53
2019-04-11T13:16:30.130Z,8.97
2019-04-11T13:19:01.255Z,7.77
2019-04-11T13:21:32.503Z,7.90
2019-04-11T13:24:03.602Z,8.93
2019-04-11T13:26:34.745Z,8.27
2019-04-11T13:29:25.135Z,7.90
2019-04-11T13:32:15.671Z,7.20
2019-04-11T13:34:46.780Z,7.70
2019-04-11T13:37:17.891Z,7.83
2019-04-11T13:39:49.031Z,7.95
2019-04-11T13:42:20.148Z,7.67
2019-04-11T13:44:49.630Z,9.85
2019-04-11T13:47:20.946Z,8.03
2019-04-11T13:49:52.001Z,8.57
2019-04-11T13:52:42.429Z,6.93
2019-04-11T13:55:14.671Z,8.90
2019-04-11T14:00:36.824Z,8.57
2019-04-11T14:03:08.131Z,8.97
2019-04-11T14:05:39.242Z,7.25
2019-04-11T14:10:47.439Z,8.28
2019-04-11T14:13:17.006Z,7.23
2019-04-11T14:15:48.188Z,7.17
2019-04-11T14:18:19.318Z,7.58
2019-04-11T14:20:50.495Z,10.20
2019-04-11T14:26:08.802Z,7.33
2019-04-11T14:28:39.870Z,6.08
2019-04-11T14:31:11.128Z,7.22
2019-04-11T14:33:42.218Z,7.25
2019-04-11T14:36:13.301Z,8.30
2019-04-11T14:38:48.016Z,7.25
2019-04-11T14:41:17.323Z,8.40
2019-04-11T14:43:48.394Z,9.70
2019-04-11T14:46:19.506Z,9.98
2019-04-11T14:48:50.654Z,8.08
2019-04-11T14:51:23.812Z,7.40
2019-04-11T14:53:54.585Z,6.90
2019-04-11T14:56:27.159Z,10.00
2019-04-11T14:58:58.377Z,7.03
2019-04-11T15:01:29.316Z,7.63
2019-04-11T15:04:00.447Z,8.60
2019-04-11T15:06:32.498Z,6.67
2019-04-11T15:09:03.583Z,8.90
2019-04-11T15:11:35.091Z,8.17
2019-04-11T15:14:25.510Z,7.57
2019-04-11T15:16:56.804Z,7.13
2019-04-11T15:19:26.754Z,8.53
2019-04-11T15:21:57.854Z,7.60
2019-04-11T15:24:48.314Z,8.13
2019-04-11T15:27:19.561Z,8.50
2019-04-11T15:29:49.087Z,10.80
2019-04-11T15:32:39.515Z,7.47
2019-04-11T15:35:09.397Z,9.17
2019-04-11T15:37:40.473Z,9.07
2019-04-11T15:40:11.967Z,8.40
2019-04-11T15:42:43.038Z,9.90
2019-04-11T15:45:14.791Z,8.83
2019-04-11T15:47:46.752Z,8.43
2019-04-11T15:50:18.863Z,8.97
2019-04-11T15:52:49.939Z,9.13
2019-04-11T15:55:21.144Z,8.43
2019-04-11T15:57:52.263Z,9.10
2019-04-11T16:00:43.924Z,8.23
2019-04-11T16:03:13.969Z,12.27
2019-04-11T16:08:49.435Z,9.33
2019-04-11T16:11:20.551Z,8.93
2019-04-11T16:13:51.605Z,8.33
2019-04-11T16:16:22.984Z,11.33
2019-04-11T16:19:14.789Z,13.93
2019-04-11T16:21:46.187Z,9.80
2019-04-11T16:24:17.284Z,8.90
2019-04-11T16:26:48.353Z,8.63
2019-04-11T16:29:19.654Z,9.67
2019-04-11T16:31:49.097Z,8.13
2019-04-11T16:34:20.230Z,8.67
2019-04-11T16:36:51.202Z,9.90
2019-04-11T16:39:22.293Z,11.70
2019-04-11T16:41:53.869Z,7.57
2019-04-11T16:44:26.422Z,9.90
2019-04-11T16:46:57.548Z,10.00
2019-04-11T16:49:46.531Z,8.13
2019-04-11T16:52:16.043Z,9.20
2019-04-11T16:54:45.509Z,9.27
2019-04-11T16:57:15.051Z,10.43
2019-04-11T16:59:44.492Z,7.93
2019-04-11T17:02:13.987Z,9.67
2019-04-11T17:04:43.490Z,9.30
2019-04-11T17:07:14.573Z,11.17
2019-04-11T17:09:45.641Z,8.93
2019-04-11T17:12:15.196Z,11.07
2019-04-11T17:15:05.425Z,9.67
2019-04-11T17:17:34.916Z,10.07
2019-04-11T17:20:06.782Z,8.60
2019-04-11T17:22:36.402Z,9.83
2019-04-11T17:25:06.933Z,8.73
2019-04-11T17:27:36.394Z,9.00
2019-04-11T17:30:08.543Z,8.47
2019-04-11T17:32:38.220Z,9.17
2019-04-11T17:35:08.069Z,12.87
2019-04-11T17:37:37.535Z,10.17
2019-04-11T17:40:07.963Z,11.70
2019-04-11T17:42:37.410Z,9.63
2019-04-11T17:45:26.198Z,10.60
2019-04-11T17:47:57.296Z,11.73
2019-04-11T17:50:46.173Z,10.17
2019-04-11T17:53:15.630Z,11.80
2019-04-11T17:55:45.127Z,11.03
2019-04-11T17:58:14.632Z,8.47
2019-04-11T18:00:45.783Z,9.07
2019-04-11T18:03:15.333Z,10.10
2019-04-11T18:05:46.921Z,9.80
2019-04-11T18:08:19.762Z,9.73
2019-04-11T18:10:48.856Z,9.33
2019-04-11T18:13:37.652Z,9.87
2019-04-11T18:16:07.300Z,9.43
2019-04-11T18:18:36.803Z,8.27
2019-04-11T18:21:07.326Z,8.77
2019-04-11T18:23:37.590Z,9.53
2019-04-11T18:26:07.086Z,9.50
2019-04-11T18:28:55.898Z,7.93
2019-04-11T18:31:25.677Z,8.80
2019-04-11T18:33:55.445Z,7.93
2019-04-11T18:36:25.278Z,7.33
2019-04-11T18:38:54.825Z,8.87
2019-04-11T18:41:24.283Z,7.73
2019-04-11T18:43:53.821Z,10.37
2019-04-11T18:46:23.690Z,7.67
2019-04-11T18:48:54.483Z,7.73
2019-04-11T18:51:24.307Z,7.17
2019-04-11T18:53:53.764Z,7.70
2019-04-11T18:56:23.231Z,8.13
2019-04-11T18:58:52.708Z,9.37
2019-04-11T19:01:22.344Z,8.23
2019-04-11T19:03:51.809Z,10.63
2019-04-11T19:06:27.792Z,7.73
2019-04-11T19:08:52.596Z,7.17
2019-04-11T19:11:22.319Z,9.13
2019-04-11T19:13:51.905Z,7.03
2019-04-11T19:16:21.392Z,8.73
2019-04-11T19:18:50.864Z,8.57
2019-04-11T19:21:21.271Z,8.50
2019-04-11T19:23:50.768Z,8.27
2019-04-11T19:26:22.773Z,9.23
2019-04-11T19:28:54.899Z,8.30
2019-04-11T19:31:27.384Z,9.27
2019-04-11T19:33:55.019Z,7.63
2019-04-11T19:36:24.620Z,7.27
2019-04-11T19:38:54.112Z,10.47
2019-04-11T19:41:23.567Z,10.17
2019-04-11T19:43:53.076Z,10.40
2019-04-11T19:46:22.556Z,10.43
2019-04-11T19:48:55.374Z,9.93
2019-04-11T19:51:23.228Z,11.83
2019-04-11T19:53:52.709Z,7.93
2019-04-11T19:56:23.771Z,9.37
2019-04-11T19:58:53.261Z,8.50
2019-04-11T20:01:23.512Z,8.80
2019-04-11T20:03:54.040Z,9.20
2019-04-11T20:06:24.249Z,10.27
2019-04-11T20:08:53.696Z,8.83
2019-04-11T20:11:23.262Z,8.73
2019-04-11T20:13:52.739Z,7.50
2019-04-11T20:16:22.289Z,9.93
2019-04-11T20:18:56.531Z,7.63
2019-04-11T20:21:24.557Z,9.63
2019-04-11T20:24:14.562Z,7.17
2019-04-11T20:26:44.646Z,11.50
2019-04-11T20:29:14.128Z,8.43
2019-04-11T20:31:43.615Z,9.33
2019-04-11T20:34:13.280Z,7.80
2019-04-11T20:36:55.362Z,11.10
2019-04-11T20:39:24.841Z,7.73
2019-04-11T20:41:55.802Z,7.73
2019-04-11T20:44:27.454Z,9.87
2019-04-11T20:47:00.093Z,8.27
2019-04-11T20:49:27.748Z,9.07
2019-04-11T20:51:57.204Z,7.13
2019-04-11T20:54:26.711Z,8.20
2019-04-11T20:56:56.177Z,7.03
2019-04-11T20:59:34.617Z,8.27
2019-04-11T21:02:16.177Z,6.80
2019-04-11T21:04:45.638Z,7.20
2019-04-11T21:07:34.438Z,8.70
2019-04-11T21:10:06.032Z,8.43
2019-04-11T21:12:37.368Z,9.60
2019-04-11T21:15:08.546Z,9.40
2019-04-11T21:17:57.342Z,8.80
2019-04-11T21:20:26.837Z,6.97
2019-04-11T21:22:56.283Z,8.90
2019-04-11T21:25:26.106Z,7.57
2019-04-11T21:27:59.118Z,9.40
2019-04-11T21:30:30.340Z,8.00
2019-04-11T21:33:01.174Z,8.20
2019-04-11T21:35:44.143Z,8.13
2019-04-11T21:38:13.617Z,6.77
2019-04-11T21:40:43.090Z,9.23
2019-04-11T21:43:12.690Z,10.20
2019-04-11T21:45:42.236Z,7.63
2019-04-11T21:48:31.057Z,7.80
2019-04-11T21:51:00.537Z,8.17
2019-04-11T21:53:36.566Z,7.33
2019-04-11T21:56:01.258Z,7.20
2019-04-11T21:58:30.715Z,9.43
2019-04-11T22:01:04.989Z,7.23
2019-04-11T22:03:34.482Z,7.17
2019-04-11T22:06:04.141Z,7.57
2019-04-11T22:08:34.370Z,7.57
2019-04-11T22:11:05.000Z,8.87
2019-04-11T22:13:34.481Z,8.93
2019-04-11T22:16:04.210Z,7.77
2019-04-11T22:18:33.817Z,7.37
2019-04-11T22:21:04.977Z,9.97
2019-04-11T22:23:34.431Z,6.90
2019-04-11T22:26:04.381Z,7.60
2019-04-11T22:28:33.828Z,8.00
2019-04-11T22:31:03.396Z,10.70
2019-04-11T22:33:34.598Z,8.87
2019-04-11T22:36:05.082Z,7.13
2019-04-11T22:38:34.568Z,9.20
2019-04-11T22:41:04.139Z,12.33
2019-04-11T22:43:33.626Z,8.90
2019-04-11T22:46:03.138Z,6.57
2019-04-11T22:48:32.649Z,7.67
2019-04-11T22:51:02.142Z,7.57
2019-04-11T22:53:31.616Z,7.90
2019-04-11T22:56:01.124Z,7.83
2019-04-11T22:58:30.590Z,10.13
2019-04-11T23:01:00.049Z,7.00
2019-04-11T23:03:31.193Z,10.17
2019-04-11T23:06:20.027Z,7.73
2019-04-11T23:08:49.609Z,7.03
2019-04-11T23:11:19.047Z,7.60
2019-04-11T23:13:48.879Z,7.43
2019-04-11T23:16:18.395Z,8.23
2019-04-11T23:18:48.029Z,9.93
2019-04-11T23:21:17.505Z,9.33
2019-04-11T23:23:46.967Z,7.67
2019-04-11T23:26:16.450Z,8.37
2019-04-11T23:28:46.854Z,7.80
2019-04-11T23:31:19.797Z,11.17
2019-04-11T23:33:51.770Z,7.53
2019-04-11T23:36:21.181Z,9.10
2019-04-11T23:38:52.595Z,9.13
2019-04-11T23:41:22.371Z,7.70
2019-04-11T23:43:51.850Z,8.80
2019-04-11T23:46:40.683Z,8.40
2019-04-11T23:49:10.169Z,10.33
2019-04-11T23:51:39.658Z,8.40
2019-04-11T23:54:09.300Z,11.33
2019-04-11T23:56:38.791Z,9.93
2019-04-11T23:59:08.273Z,8.47
